createdAt,value
2023-03-08T00:04:17.284Z,4.20
2023-03-08T00:10:12.043Z,4.10
2023-03-08T00:16:30.540Z,4.20
2023-03-08T00:22:48.946Z,4.20
2023-03-08T00:28:43.351Z,4.20
2023-03-08T00:34:37.901Z,4.20
2023-03-08T00:40:56.424Z,4.10
2023-03-08T00:47:14.864Z,4.20
2023-03-08T00:53:09.269Z,4.00
2023-03-08T00:59:03.721Z,4.00
2023-03-08T01:05:22.322Z,4.00
2023-03-08T01:11:40.683Z,4.10
2023-03-08T01:17:35.108Z,4.10
2023-03-08T01:23:29.637Z,4.10
2023-03-08T01:29:48.290Z,4.00
2023-03-08T01:36:07.269Z,4.00
2023-03-08T01:42:05.204Z,4.00
2023-03-08T01:47:59.727Z,3.90
2023-03-08T01:54:19.435Z,3.80
2023-03-08T02:00:37.845Z,3.80
2023-03-08T02:06:32.282Z,3.80
2023-03-08T02:12:26.745Z,3.80
2023-03-08T02:18:59.132Z,3.80
2023-03-08T02:25:17.554Z,3.70
2023-03-08T02:31:12.168Z,3.70
2023-03-08T02:37:06.726Z,3.60
2023-03-08T02:43:25.314Z,3.70
2023-03-08T02:49:43.670Z,3.70
2023-03-08T02:55:38.190Z,3.60
2023-03-08T03:01:32.740Z,3.60
2023-03-08T03:07:51.228Z,3.50
2023-03-08T03:14:09.596Z,3.60
2023-03-08T03:20:06.804Z,3.60
2023-03-08T03:26:08.646Z,3.60
2023-03-08T03:32:27.376Z,3.50
2023-03-08T03:38:45.922Z,3.50
2023-03-08T03:44:40.400Z,3.40
2023-03-08T03:50:35.890Z,3.30
2023-03-08T03:56:58.232Z,3.30
2023-03-08T04:03:16.760Z,3.30
2023-03-08T04:09:15.533Z,3.10
2023-03-08T04:15:10.243Z,3.20
2023-03-08T04:21:28.840Z,3.30
2023-03-08T04:27:47.303Z,3.20
2023-03-08T04:33:41.706Z,3.00
2023-03-08T04:39:36.181Z,2.80
2023-03-08T04:45:54.762Z,2.90
2023-03-08T04:52:13.112Z,2.80
2023-03-08T04:58:07.488Z,2.70
2023-03-08T05:04:01.945Z,2.50
2023-03-08T05:10:20.421Z,2.40
2023-03-08T05:16:38.908Z,2.30
2023-03-08T05:22:37.208Z,2.20
2023-03-08T05:28:41.952Z,2.10
2023-03-08T05:35:01.473Z,2.00
2023-03-08T05:41:19.821Z,2.00
2023-03-08T05:47:14.171Z,1.80
2023-03-08T05:53:09.961Z,1.70
2023-03-08T05:59:28.487Z,1.60
2023-03-08T06:05:47.856Z,1.60
2023-03-08T06:11:42.274Z,1.60
2023-03-08T06:17:36.765Z,1.50
2023-03-08T06:23:55.247Z,1.50
2023-03-08T06:30:13.655Z,1.40
2023-03-08T06:36:08.988Z,1.40
2023-03-08T06:42:03.482Z,1.30
2023-03-08T06:48:23.015Z,1.40
2023-03-08T06:54:41.410Z,1.50
2023-03-08T07:00:36.503Z,1.50
2023-03-08T07:06:31.979Z,1.30
2023-03-08T07:12:51.527Z,1.20
2023-03-08T07:19:10.961Z,1.30
2023-03-08T07:25:05.725Z,1.30
2023-03-08T07:31:00.580Z,1.20
2023-03-08T07:37:19.204Z,1.20
2023-03-08T07:43:37.614Z,1.30
2023-03-08T07:49:32.095Z,1.30
2023-03-08T07:55:27.659Z,1.30
2023-03-08T08:01:46.171Z,1.30
2023-03-08T08:08:04.744Z,1.30
2023-03-08T08:13:59.119Z,1.20
2023-03-08T08:19:54.611Z,1.20
2023-03-08T08:26:22.208Z,1.30
2023-03-08T08:32:40.879Z,1.40
2023-03-08T08:38:36.280Z,1.40
2023-03-08T08:44:30.929Z,1.40
2023-03-08T08:50:49.417Z,1.50
2023-03-08T08:57:08.825Z,1.50
2023-03-08T09:03:03.499Z,1.60
2023-03-08T09:08:59.319Z,1.60
2023-03-08T09:15:17.886Z,1.70
2023-03-08T09:21:36.251Z,1.90
2023-03-08T09:27:30.650Z,1.70
2023-03-08T09:33:25.244Z,1.70
2023-03-08T09:39:44.390Z,1.90
2023-03-08T09:46:05.076Z,1.90
2023-03-08T09:52:22.798Z,2.00
2023-03-08T09:58:22.795Z,2.00
2023-03-08T10:05:12.327Z,2.00
2023-03-08T10:11:33.116Z,2.00
2023-03-08T10:17:39.949Z,1.90
2023-03-08T10:23:35.848Z,2.10
2023-03-08T10:29:56.384Z,2.10
2023-03-08T10:36:18.935Z,2.20
2023-03-08T10:42:16.501Z,2.30
2023-03-08T10:48:19.972Z,2.50
2023-03-08T10:54:38.470Z,2.60
2023-03-08T11:00:57.579Z,2.70
2023-03-08T11:06:51.924Z,2.60
2023-03-08T11:12:47.441Z,2.60
2023-03-08T11:19:43.589Z,2.60
2023-03-08T11:26:02.096Z,2.80
2023-03-08T11:32:02.648Z,2.80
2023-03-08T11:37:57.242Z,2.70
2023-03-08T11:45:00.116Z,2.70
2023-03-08T11:51:21.654Z,2.90
2023-03-08T11:57:16.428Z,2.80
2023-03-08T12:03:19.511Z,3.00
2023-03-08T12:09:42.635Z,2.80
2023-03-08T12:16:16.644Z,3.00
2023-03-08T12:22:31.279Z,3.10
2023-03-08T12:28:31.709Z,3.00
2023-03-08T12:35:01.070Z,3.00
2023-03-08T12:41:26.682Z,2.90
2023-03-08T12:47:22.213Z,3.10
2023-03-08T12:53:44.485Z,3.10
2023-03-08T13:00:27.665Z,3.00
2023-03-08T13:07:10.485Z,3.20
2023-03-08T13:13:15.640Z,3.40
2023-03-08T13:19:15.375Z,3.40
2023-03-08T13:25:58.962Z,3.40
2023-03-08T13:32:20.636Z,3.50
2023-03-08T13:38:20.728Z,3.40
2023-03-08T13:44:16.720Z,3.40
2023-03-08T13:50:50.730Z,3.50
2023-03-08T13:57:18.108Z,3.50
2023-03-08T14:03:19.205Z,3.40
2023-03-08T14:09:13.673Z,3.40
2023-03-08T14:15:32.756Z,3.50
2023-03-08T14:22:32.366Z,3.50
2023-03-08T14:28:33.459Z,3.50
2023-03-08T14:34:33.875Z,3.40
2023-03-08T14:40:52.375Z,3.40
2023-03-08T14:47:18.417Z,3.40
2023-03-08T14:53:22.980Z,3.30
2023-03-08T14:59:26.915Z,3.40
2023-03-08T15:05:46.729Z,3.40
2023-03-08T15:12:07.667Z,3.30
2023-03-08T15:18:02.540Z,3.30
2023-03-08T15:23:57.030Z,3.30
2023-03-08T15:30:17.344Z,3.30
2023-03-08T15:36:36.798Z,3.30
2023-03-08T15:42:31.891Z,3.30
2023-03-08T15:48:26.462Z,3.10
2023-03-08T15:54:47.433Z,3.10
2023-03-08T16:02:56.603Z,3.10
2023-03-08T16:08:51.005Z,3.10
2023-03-08T16:14:49.492Z,3.10
2023-03-08T16:21:09.128Z,3.10
2023-03-08T16:27:28.809Z,3.10
2023-03-08T16:33:23.203Z,3.00
2023-03-08T16:39:17.703Z,2.80
2023-03-08T16:45:38.094Z,3.00
2023-03-08T16:51:56.633Z,3.00
2023-03-08T16:57:51.118Z,2.90
2023-03-08T17:03:45.683Z,2.90
2023-03-08T17:10:05.989Z,2.90
2023-03-08T17:16:25.285Z,3.10
2023-03-08T17:22:19.660Z,3.00
2023-03-08T17:28:16.070Z,3.00
2023-03-08T17:34:35.705Z,3.00
2023-03-08T17:40:54.176Z,2.90
2023-03-08T17:46:48.530Z,2.90
2023-03-08T17:52:43.021Z,2.90
2023-03-08T17:59:01.731Z,2.90
2023-03-08T18:05:20.088Z,3.00
2023-03-08T18:11:14.432Z,2.90
2023-03-08T18:17:10.081Z,2.90
2023-03-08T18:23:29.852Z,2.90
2023-03-08T18:29:49.260Z,2.90
2023-03-08T18:35:44.854Z,2.90
2023-03-08T18:41:39.425Z,2.80
2023-03-08T18:47:57.912Z,2.90
2023-03-08T18:54:17.454Z,2.90
2023-03-08T19:00:12.218Z,2.90
2023-03-08T19:06:08.093Z,3.00
2023-03-08T19:12:27.570Z,3.00
2023-03-08T19:18:47.229Z,3.00
2023-03-08T19:24:41.581Z,2.90
2023-03-08T19:30:36.088Z,3.00
2023-03-08T19:36:54.821Z,3.10
2023-03-08T19:43:13.242Z,3.10
2023-03-08T19:49:08.447Z,3.00
2023-03-08T19:55:03.239Z,3.00
2023-03-08T20:01:21.721Z,2.90
2023-03-08T20:07:40.090Z,3.00
2023-03-08T20:13:34.476Z,3.10
2023-03-08T20:19:31.951Z,3.10
2023-03-08T20:25:50.498Z,3.00
2023-03-08T20:32:08.937Z,3.10
2023-03-08T20:38:03.458Z,3.10
2023-03-08T20:43:58.629Z,3.10
2023-03-08T20:50:18.237Z,3.10
2023-03-08T20:56:36.806Z,3.20
2023-03-08T21:02:37.557Z,3.30
2023-03-08T21:08:32.037Z,3.20
2023-03-08T21:14:51.840Z,3.10
2023-03-08T21:21:16.616Z,3.10
2023-03-08T21:27:11.013Z,3.10
2023-03-08T21:33:06.470Z,3.10
2023-03-08T21:39:26.841Z,3.20
2023-03-08T21:45:45.197Z,3.30
2023-03-08T21:51:40.549Z,3.10
2023-03-08T21:57:34.997Z,3.20
2023-03-08T22:03:54.379Z,3.20
2023-03-08T22:10:13.088Z,3.30
2023-03-08T22:16:07.585Z,3.10
2023-03-08T22:22:03.192Z,3.10
2023-03-08T22:28:22.656Z,3.20
2023-03-08T22:34:41.031Z,3.40
2023-03-08T22:40:38.340Z,3.40
2023-03-08T22:46:33.054Z,3.20
2023-03-08T22:52:51.558Z,3.20
2023-03-08T22:59:09.998Z,3.20
2023-03-08T23:05:05.876Z,3.20
2023-03-08T23:11:00.324Z,3.10
2023-03-08T23:17:18.800Z,3.20
2023-03-08T23:23:37.154Z,3.20
2023-03-08T23:29:31.514Z,3.30
2023-03-08T23:35:25.991Z,3.20
2023-03-08T23:41:46.271Z,3.30
2023-03-08T23:48:04.745Z,3.40
2023-03-08T23:53:59.700Z,3.40
2023-03-08T23:59:54.194Z,3.40
